NCAR-RAP Real-Time Weather Data

Output produced by METARs form (26 June 2017  00:13 UTC)
found at http://weather.rap.ucar.edu/surface/
 
KIAD 252352Z 32008KT 10SM FEW080 SCT120 SCT200 26/07 A3003 RMK AO2 SLP165 T02560072 10294 20256 53013
KIAD 252252Z 32015KT 10SM FEW080 SCT120 SCT250 27/07 A3001 RMK AO2 SLP159 T02670067
KIAD 252152Z 31015G21KT 10SM FEW080 SCT120 SCT250 28/07 A2999 RMK AO2 SLP153 T02780072
KIAD 252052Z 30013G18KT 10SM SCT080 SCT095 BKN250 29/09 A2999 RMK AO2 SLP151 T02890089 56012
KIAD 251952Z 30010KT 10SM FEW080 SCT095 BKN250 29/11 A3000 RMK AO2 SLP155 T02940111
KIAD 251852Z 27007KT 10SM SCT065 BKN095 BKN250 28/11 A3001 RMK AO2 SLP158 T02780106
KIAD 251752Z 29009KT 10SM SCT065 BKN250 28/12 A3002 RMK AO2 SLP163 T02830117 10289 20222 58010
KIAD 251652Z 28013G17KT 10SM SCT065 BKN250 27/11 A3003 RMK AO2 SLP167 T02720111
KIAD 251552Z 29010KT 10SM SCT050 SCT090 BKN250 27/15 A3005 RMK AO2 SLP172 T02670150
KIAD 251452Z 29003KT 10SM SCT040 SCT090 BKN250 26/16 A3005 RMK AO2 SLP173 ACC E T02560156 51004
KIAD 251352Z 31007KT 10SM FEW040 BKN095 BKN250 24/14 A3004 RMK AO2 SLP171 ACC N-S T02440139
KIAD 251252Z VRB03KT 10SM BKN085 BKN250 24/16 A3005 RMK AO2 SLP172 ACC ALQDS T02390156
KIAD 251152Z 24003KT 10SM BKN085 BKN250 22/16 A3004 RMK AO2 SLP169 ACC ALQDS T02220156 10222 20167 53019
KIAD 251052Z 21003KT 10SM BKN085 BKN250 19/17 A3002 RMK AO2 SLP163 ACC ALQDS T01890167
KIAD 251020Z 00000KT 10SM BKN080 BKN250 18/16 A3001 RMK AO2 ACC ALQDS T01780156
KIAD 250952Z 00000KT 10SM FEW075 SCT100 17/15 A3000 RMK AO2 SLP154 T01670150
KIAD 250852Z 00000KT 10SM SCT080 SCT100 18/15 A2998 RMK AO2 SLP149 T01830150 55001
KIAD 250752Z 00000KT 10SM SCT080 SCT100 19/15 A2998 RMK AO2 SLP148 T01890150
KIAD 250652Z 00000KT 10SM FEW080 FEW100 18/15 A2998 RMK AO2 SLP150 T01830150
KIAD 250552Z 00000KT 10SM FEW100 21/15 A2999 RMK AO2 SLP151 T02060150 10272 20189 51004
KIAD 250452Z 00000KT 10SM SCT100 19/16 A2998 RMK AO2 SLP149 T01940161 403000189
KIAD 250352Z 00000KT 10SM SCT100 20/17 A2998 RMK AO2 SLP151 T02000167
KIAD 250252Z 29005KT 10SM FEW150 FEW250 22/16 A2997 RMK AO2 SLP146 T02170161 51021
KIAD 250152Z 19004KT 10SM FEW050 BKN150 23/16 A2996 RMK AO2 SLP141 T02280156
KIAD 250052Z 00000KT 10SM FEW050 FEW150 24/16 A2993 RMK AO2 SLP132 T02440156
KIAD 242352Z 24003KT 10SM FEW250 27/15 A2991 RMK AO2 SLP126 T02720150 10300 20272 53002
KIAD 242252Z 24003KT 10SM FEW090 SCT250 28/14 A2990 RMK AO2 SLP123 T02830144
KIAD 242152Z 25006KT 10SM FEW065 SCT150 29/14 A2990 RMK AO2 SLP121 T02890144
KIAD 242052Z 27008KT 10SM FEW065 29/14 A2990 RMK AO2 SLP124 T02940139 53006
KIAD 241952Z 28010G16KT 10SM SCT060 BKN140 BKN250 29/13 A2990 RMK AO2 SLP120 T02940133
KIAD 241852Z 25008KT 10SM SCT055 BKN150 BKN250 28/14 A2989 RMK AO2 SLP117 T02780139
KIAD 241752Z 29012G18KT 10SM SCT055 BKN150 BKN250 29/14 A2989 RMK AO2 SLP116 T02890144 10289 20233 51009
KIAD 241652Z 28013KT 10SM SCT055 SCT250 28/14 A2988 RMK AO2 SLP115 T02780144
KIAD 241552Z 31013G19KT 10SM SCT045 SCT250 28/16 A2988 RMK AO2 SLP113 T02780161
KIAD 241452Z 31015KT 10SM SCT040 SCT250 27/18 A2986 RMK AO2 SLP107 CCSL SW T02720178 51030
KIAD 241352Z 30013G20KT 10SM SCT032 SCT040 SCT150 BKN250 26/19 A2983 RMK AO2 SLP098 T02610189
KIAD 241252Z 28009KT 10SM BKN045 BKN250 24/18 A2981 RMK AO2 SLP089 T02440183
KIAD 241152Z 29008KT 10SM SCT030 SCT150 SCT250 23/18 A2977 RMK AO2 SLP076 60023 70027 T02330183 10244 20211 53035
KIAD 241052Z 29015KT 10SM FEW030 SCT150 SCT250 22/19 A2973 RMK AO2 SLP064 T02170189
KIAD 240952Z 30009KT 10SM FEW050 BKN140 21/19 A2970 RMK AO2 SLP054 T02110189
KIAD 240852Z 31010KT 10SM SCT016 BKN030 OVC080 21/19 A2966 RMK AO2 WSHFT 0805 RAB08E40 SLP042 P0018 60023 T02110194 53002
KIAD 240840Z 29011KT 10SM FEW008 SCT018 OVC033 22/20 A2966 RMK AO2 WSHFT 0805 RAB08E40 PRESRR P0018 T02170200
KIAD 240823Z 30011G20KT 3SM RA BR FEW008 BKN029 OVC050 22/21 A2963 RMK AO2 WSHFT 0805 RAB08 PRESRR P0017 T02170206
KIAD 240820Z 30012G20KT 2SM +RA BR SCT011 BKN028 OVC095 22/21 A2963 RMK AO2 WSHFT 0805 RAB08 PRESRR P0016 T02220206
KIAD 240817Z 31014G20KT 1 1/2SM R01R/5000VP6000FT +RA BR FEW009 BKN028 OVC095 23/22 A2962 RMK AO2 RAB08 PRESRR P0014 T02280217
KIAD 240813Z 28012G23KT 1 3/4SM R01R/5000VP6000FT +RA BR FEW011 BKN029 OVC095 23/22 A2962 RMK AO2 RAB08 PRESRR P0009 T02330217
KIAD 240811Z 27013G23KT 2SM R01R/5000VP6000FT +RA BR FEW016 BKN028 OVC095 23/22 A2962 RMK AO2 RAB08 PRESRR P0005 T02330217
KIAD 240752Z 18008KT 10SM BKN037 OVC065 24/22 A2958 RMK AO2 RAE06 SLP014 P0000 T02390217
KIAD 240652Z 16006KT 10SM -RA BKN090 OVC110 24/22 A2960 RMK AO2 SLP021 P0005 T02390222
KIAD 240552Z 22006KT 6SM -RA BR BKN080 OVC120 24/22 A2966 RMK AO2 SLP039 P0004 60004 T02440222 10289 20244 58011
KIAD 240452Z 20013KT 10SM -RA SCT100 BKN150 BKN190 27/21 A2967 RMK AO2 RAB47 SLP043 P0000 T02720211 403060217
KIAD 240352Z 19012G22KT 10SM SCT090 SCT150 28/21 A2968 RMK AO2 SLP047 T02780211
KIAD 240252Z 18013KT 10SM SCT085 SCT150 27/22 A2969 RMK AO2 SLP051 T02720217 58003
KIAD 240152Z 19006KT 10SM BKN085 BKN200 27/22 A2971 RMK AO2 SLP057 T02720217
KIAD 240052Z 20013G18KT 10SM FEW045 SCT100 BKN160 BKN250 28/22 A2970 RMK AO2 SLP054 T02780217
KIAD 232352Z 20011KT 10SM FEW040 BKN100 BKN250 29/22 A2970 RMK AO2 SLP055 60000 T02890222 10306 20267 55005
KIAD 232252Z 21009KT 10SM FEW037 SCT090 SCT150 29/22 A2969 RMK AO2 SLP052 T02940222
KIAD 232152Z 21014G21KT 10SM FEW035 BKN090 BKN150 29/21 A2971 RMK AO2 LTG DSNT N SLP055 T02890206
KIAD 232052Z 20012G21KT 10SM FEW035 BKN080 BKN140 28/23 A2972 RMK AO2 LTG DSNT E AND W RAE39 SLP060 P0000 60000 T02780228 58016
KIAD 231952Z 20014G22KT 10SM -RA FEW029 BKN060 OVC150 27/22 A2974 RMK AO2 LTG DSNT ALQDS RAB40 SLP069 P0000 T02670222
KIAD 231852Z 20013G22KT 10SM FEW025 SCT085 BKN160 29/22 A2976 RMK AO2 SLP073 T02940222
KIAD 231752Z 19017G25KT 10SM SCT025 BKN100 BKN250 29/23 A2977 RMK AO2 SLP076 T02940228 10300 20222 56015
KIAD 231710Z 20013KT 10SM SCT029 BKN070 BKN160 28/22 A2978 RMK AO2 T02830222
KIAD 231652Z 19011KT 10SM BKN029 BKN075 BKN200 28/22 A2979 RMK AO2 SLP083 T02830222
KIAD 231639Z 21015G22KT 10SM BKN029 BKN120 BKN250 28/22 A2979 RMK AO2 T02830217
KIAD 231552Z 21015G22KT 10SM SCT025 BKN110 BKN250 29/23 A2979 RMK AO2 SLP084 T02940228
KIAD 231459Z 21012G19KT 10SM SCT017 BKN120 28/22 A2981 RMK AO2 T02780222
KIAD 231452Z 20011KT 10SM BKN014 BKN055 BKN250 27/22 A2981 RMK AO2 SLP091 T02720222 58017
KIAD 231352Z 20012G19KT 10SM BKN014 BKN040 BKN070 24/22 A2983 RMK AO2 SLP098 T02440217
KIAD 231252Z 20008KT 10SM BKN010 BKN013 OVC040 23/21 A2985 RMK AO2 SLP105 T02280211